الصفحة الرئيسية
METAR-TAF:

METAR-TAF

مطار :

أوخريد, مقدونيا

دائرة عرض: 41-07N, خط طول: 020-48E, ارتفاع: 760 متر

مراقبة الطقس الحالي

تاريخ ووقت الإصدار 16 دقيقة قبل الساعة 11:00UTC
ريح 2 عقدة من الجنوب الغربي
درجة الحرارة 4°درجة مئوية
الرطوبة 87%
ضغط 1003 hPa
الرؤية: 5000 متر
غيوم مفككة على ارتفاع 1000 قدم
ملبد بالغيوم على ارتفاع 4000 قدم
مطر خفيف, غشاء

METAR: LWOH 261100Z 22002KT 5000 -RA BR BKN010 OVC040 04/02 Q1003

زمن: 12:16 (11:16 UTC)

توقعات

تاريخ ووقت الإصدار 2ساعات و 26 دقيقة قبل الساعة 08:50UTC
التوقعات صالحة من26 الساعة 09 UTC إلى 27 الساعة 09 UTC
ريح 2 عقدةمن اتجاهات متغيرة
الرؤية 10 كم أو أكثر
غيوم متفرقة على ارتفاع 2000 قدم
ملبد بالغيوم على ارتفاع 4500 قدم
مطر
مؤقت
من 26 الساعة 10 UTC إلى 26 الساعة 20 UTC
ريح 12 عقدة من الشمال/الشمال الغربي
غيوم مفككة على ارتفاع 2000 قدم
ملبد بالغيوم على ارتفاع 3500 قدم
ثلوج, مطر

TAF: LWOH 260850Z 2609/2709 VRB02KT 9999 RA SCT020 OVC045 TEMPO 2610/2620 34012KT SNRA BKN020 OVC035

أرصاد الطقس والتوقعات من أكثر من 4000 مطار (تقارير الطقس للمطار METAR والتنبؤ بالطقس بالمطارTAF).

المحطات المتاحة هي النقط الصفراء والحمراء على الخريطة.

حرك المؤشر فوق النقطة لمعرفة اسم المحطة.

ثم انقر لمعرفة أرصاد وتوقعات الطقس.

لتغيير الخارطة: اضغط على الأزرار الخضراء مع رمز الصليب الأسود للتكبير. على الزر الأخضر مع شرطة للتصغير، أو على الأسهم الخضراء للخرائط المجاورة.


METAR-TAF: